sensor_id;sensor_type;location;lat;lon;timestamp;pressure;altitude;pressure_sealevel;temperature;humidity
61384;BME280;63511;49.346;8.798;2022-10-26T00:00:43;100196.59;;;14.45;88.53
61384;BME280;63511;49.346;8.798;2022-10-26T00:03:08;100194.06;;;14.45;88.47
61384;BME280;63511;49.346;8.798;2022-10-26T00:05:33;100187.78;;;14.38;89.64
61384;BME280;63511;49.346;8.798;2022-10-26T00:08:00;100190.66;;;14.62;88.20
61384;BME280;63511;49.346;8.798;2022-10-26T00:10:25;100202.13;;;14.72;87.81
61384;BME280;63511;49.346;8.798;2022-10-26T00:12:51;100195.16;;;14.68;88.58
61384;BME280;63511;49.346;8.798;2022-10-26T00:15:18;100198.66;;;14.70;87.92
61384;BME280;63511;49.346;8.798;2022-10-26T00:17:44;100211.00;;;14.80;87.64
61384;BME280;63511;49.346;8.798;2022-10-26T00:20:12;100227.28;;;14.83;87.04
61384;BME280;63511;49.346;8.798;2022-10-26T00:22:40;100226.22;;;14.96;86.61
61384;BME280;63511;49.346;8.798;2022-10-26T00:25:06;100229.97;;;15.04;87.13
61384;BME280;63511;49.346;8.798;2022-10-26T00:27:34;100249.81;;;15.11;86.55
61384;BME280;63511;49.346;8.798;2022-10-26T00:30:01;100252.19;;;15.08;86.19
61384;BME280;63511;49.346;8.798;2022-10-26T00:32:26;100230.16;;;14.73;87.45
61384;BME280;63511;49.346;8.798;2022-10-26T00:34:54;100231.63;;;14.68;88.99
61384;BME280;63511;49.346;8.798;2022-10-26T00:37:19;100240.66;;;14.79;88.33
61384;BME280;63511;49.346;8.798;2022-10-26T00:39:45;100241.38;;;14.95;87.32
61384;BME280;63511;49.346;8.798;2022-10-26T00:42:13;100238.13;;;14.97;86.82
61384;BME280;63511;49.346;8.798;2022-10-26T00:47:17;100230.66;;;14.66;88.49
61384;BME280;63511;49.346;8.798;2022-10-26T00:49:46;100227.97;;;14.63;89.07
61384;BME280;63511;49.346;8.798;2022-10-26T00:52:14;100228.22;;;14.85;87.99
61384;BME280;63511;49.346;8.798;2022-10-26T00:54:42;100229.09;;;15.04;87.02
61384;BME280;63511;49.346;8.798;2022-10-26T00:57:09;100211.75;;;14.95;86.99
61384;BME280;63511;49.346;8.798;2022-10-26T01:03:31;100227.44;;;15.04;87.48
61384;BME280;63511;49.346;8.798;2022-10-26T01:06:17;100227.97;;;14.97;87.76
61384;BME280;63511;49.346;8.798;2022-10-26T01:08:43;100223.25;;;14.53;89.23
61384;BME280;63511;49.346;8.798;2022-10-26T01:11:08;100217.78;;;14.29;90.76
61384;BME280;63511;49.346;8.798;2022-10-26T01:13:36;100221.34;;;14.33;91.67
61384;BME280;63511;49.346;8.798;2022-10-26T01:19:00;100202.59;;;14.81;89.08
61384;BME280;63511;49.346;8.798;2022-10-26T01:24:22;100211.47;;;15.07;87.82
61384;BME280;63511;49.346;8.798;2022-10-26T01:27:19;100200.53;;;15.09;87.62
61384;BME280;63511;49.346;8.798;2022-10-26T01:35:11;100215.78;;;15.27;86.91
61384;BME280;63511;49.346;8.798;2022-10-26T01:37:51;100214.72;;;15.22;86.70
61384;BME280;63511;49.346;8.798;2022-10-26T01:40:24;100207.75;;;15.18;86.72
61384;BME280;63511;49.346;8.798;2022-10-26T01:42:53;100204.19;;;14.97;88.00
61384;BME280;63511;49.346;8.798;2022-10-26T01:45:20;100197.88;;;15.06;87.18
61384;BME280;63511;49.346;8.798;2022-10-26T01:47:46;100184.59;;;15.13;87.33
61384;BME280;63511;49.346;8.798;2022-10-26T01:50:12;100177.56;;;15.08;87.39
61384;BME280;63511;49.346;8.798;2022-10-26T01:52:38;100167.25;;;15.05;87.34
61384;BME280;63511;49.346;8.798;2022-10-26T01:58:16;100160.13;;;15.15;87.57
61384;BME280;63511;49.346;8.798;2022-10-26T02:00:59;100156.41;;;15.09;87.01
61384;BME280;63511;49.346;8.798;2022-10-26T02:03:44;100157.66;;;15.17;86.83
61384;BME280;63511;49.346;8.798;2022-10-26T02:09:04;100161.59;;;14.93;87.99
61384;BME280;63511;49.346;8.798;2022-10-26T02:16:43;100175.19;;;14.93;88.67
61384;BME280;63511;49.346;8.798;2022-10-26T02:19:34;100172.28;;;15.03;88.10
61384;BME280;63511;49.346;8.798;2022-10-26T02:22:24;100175.25;;;15.12;87.71
61384;BME280;63511;49.346;8.798;2022-10-26T02:24:54;100181.94;;;15.10;88.12
61384;BME280;63511;49.346;8.798;2022-10-26T02:27:24;100180.56;;;15.17;87.56
61384;BME280;63511;49.346;8.798;2022-10-26T02:29:52;100172.34;;;15.22;87.55
61384;BME280;63511;49.346;8.798;2022-10-26T02:32:21;100176.59;;;15.23;87.02
61384;BME280;63511;49.346;8.798;2022-10-26T02:34:48;100174.38;;;14.94;88.48
61384;BME280;63511;49.346;8.798;2022-10-26T02:37:17;100180.59;;;15.18;88.20
61384;BME280;63511;49.346;8.798;2022-10-26T02:39:48;100179.22;;;15.25;87.59
61384;BME280;63511;49.346;8.798;2022-10-26T02:42:15;100178.16;;;15.20;88.18
61384;BME280;63511;49.346;8.798;2022-10-26T02:47:17;100183.34;;;15.41;87.11
61384;BME280;63511;49.346;8.798;2022-10-26T02:49:43;100181.94;;;15.47;86.75
61384;BME280;63511;49.346;8.798;2022-10-26T02:55:02;100188.09;;;15.33;87.45
61384;BME280;63511;49.346;8.798;2022-10-26T02:57:33;100189.31;;;15.23;87.67
61384;BME280;63511;49.346;8.798;2022-10-26T03:00:05;100183.72;;;15.30;88.06
61384;BME280;63511;49.346;8.798;2022-10-26T03:02:30;100179.44;;;15.29;87.17
61384;BME280;63511;49.346;8.798;2022-10-26T03:04:56;100187.22;;;15.32;87.86
61384;BME280;63511;49.346;8.798;2022-10-26T03:07:30;100183.75;;;14.95;89.43
61384;BME280;63511;49.346;8.798;2022-10-26T03:09:55;100189.16;;;15.01;88.99
61384;BME280;63511;49.346;8.798;2022-10-26T03:12:20;100193.44;;;15.02;89.52
61384;BME280;63511;49.346;8.798;2022-10-26T03:14:46;100193.41;;;15.20;89.20
61384;BME280;63511;49.346;8.798;2022-10-26T03:17:11;100206.50;;;15.27;88.14
61384;BME280;63511;49.346;8.798;2022-10-26T03:19:36;100216.50;;;15.42;88.25
61384;BME280;63511;49.346;8.798;2022-10-26T03:22:02;100205.72;;;15.48;87.38
61384;BME280;63511;49.346;8.798;2022-10-26T03:24:27;100207.03;;;15.40;87.62
61384;BME280;63511;49.346;8.798;2022-10-26T03:26:52;100208.06;;;15.43;87.83
61384;BME280;63511;49.346;8.798;2022-10-26T03:29:17;100214.28;;;15.50;87.46
61384;BME280;63511;49.346;8.798;2022-10-26T03:31:43;100203.19;;;15.48;87.58
61384;BME280;63511;49.346;8.798;2022-10-26T03:34:08;100219.50;;;15.51;88.02
61384;BME280;63511;49.346;8.798;2022-10-26T03:36:33;100215.34;;;15.36;87.95
61384;BME280;63511;49.346;8.798;2022-10-26T03:39:01;100213.06;;;15.42;88.16
61384;BME280;63511;49.346;8.798;2022-10-26T03:41:26;100207.00;;;15.20;88.89
61384;BME280;63511;49.346;8.798;2022-10-26T03:43:51;100203.28;;;15.31;88.63
61384;BME280;63511;49.346;8.798;2022-10-26T03:46:17;100189.84;;;15.16;88.86
61384;BME280;63511;49.346;8.798;2022-10-26T03:48:42;100184.28;;;15.06;89.34
61384;BME280;63511;49.346;8.798;2022-10-26T03:51:07;100184.44;;;14.91;90.52
61384;BME280;63511;49.346;8.798;2022-10-26T03:53:33;100190.38;;;14.74;91.34
61384;BME280;63511;49.346;8.798;2022-10-26T03:56:00;100181.84;;;15.09;89.94
61384;BME280;63511;49.346;8.798;2022-10-26T03:58:25;100186.06;;;15.26;88.81
61384;BME280;63511;49.346;8.798;2022-10-26T04:00:51;100182.63;;;15.25;88.70
61384;BME280;63511;49.346;8.798;2022-10-26T04:03:16;100182.50;;;15.22;89.62
61384;BME280;63511;49.346;8.798;2022-10-26T04:05:45;100194.28;;;15.20;89.14
61384;BME280;63511;49.346;8.798;2022-10-26T04:08:10;100193.38;;;15.38;88.69
61384;BME280;63511;49.346;8.798;2022-10-26T04:10:35;100189.38;;;15.43;88.90
61384;BME280;63511;49.346;8.798;2022-10-26T04:13:01;100200.75;;;15.51;88.57
61384;BME280;63511;49.346;8.798;2022-10-26T04:15:27;100198.75;;;15.44;88.70
61384;BME280;63511;49.346;8.798;2022-10-26T04:17:57;100198.97;;;15.48;88.03
61384;BME280;63511;49.346;8.798;2022-10-26T04:20:24;100184.06;;;15.56;88.04
61384;BME280;63511;49.346;8.798;2022-10-26T04:23:00;100187.63;;;15.42;88.35
61384;BME280;63511;49.346;8.798;2022-10-26T04:25:29;100182.75;;;15.46;88.00
61384;BME280;63511;49.346;8.798;2022-10-26T04:27:57;100186.56;;;15.54;87.89
61384;BME280;63511;49.346;8.798;2022-10-26T04:30:25;100193.31;;;15.18;88.89
61384;BME280;63511;49.346;8.798;2022-10-26T04:32:52;100200.88;;;15.35;88.12
61384;BME280;63511;49.346;8.798;2022-10-26T04:35:18;100196.44;;;15.30;88.52
61384;BME280;63511;49.346;8.798;2022-10-26T04:37:43;100188.81;;;15.30;88.44
61384;BME280;63511;49.346;8.798;2022-10-26T04:40:12;100198.41;;;15.36;88.43
61384;BME280;63511;49.346;8.798;2022-10-26T04:42:45;100190.91;;;15.39;87.64
61384;BME280;63511;49.346;8.798;2022-10-26T04:45:11;100196.59;;;15.34;87.71
61384;BME280;63511;49.346;8.798;2022-10-26T04:47:37;100196.06;;;15.41;87.18
61384;BME280;63511;49.346;8.798;2022-10-26T04:50:03;100183.94;;;15.35;87.13
61384;BME280;63511;49.346;8.798;2022-10-26T04:52:28;100180.84;;;15.23;87.69
61384;BME280;63511;49.346;8.798;2022-10-26T04:54:54;100177.44;;;15.05;88.93
61384;BME280;63511;49.346;8.798;2022-10-26T04:57:19;100182.44;;;15.03;89.24
61384;BME280;63511;49.346;8.798;2022-10-26T04:59:44;100176.19;;;15.14;89.04
61384;BME280;63511;49.346;8.798;2022-10-26T05:02:12;100178.34;;;15.24;88.72
61384;BME280;63511;49.346;8.798;2022-10-26T05:04:37;100180.31;;;15.30;88.87
61384;BME280;63511;49.346;8.798;2022-10-26T05:07:07;100174.91;;;15.42;88.21
61384;BME280;63511;49.346;8.798;2022-10-26T05:09:32;100174.16;;;15.44;87.45
61384;BME280;63511;49.346;8.798;2022-10-26T05:11:57;100172.56;;;15.46;87.45
61384;BME280;63511;49.346;8.798;2022-10-26T05:14:23;100180.09;;;15.25;88.44
61384;BME280;63511;49.346;8.798;2022-10-26T05:16:52;100177.69;;;15.28;88.03
61384;BME280;63511;49.346;8.798;2022-10-26T05:19:20;100181.06;;;15.27;88.14
61384;BME280;63511;49.346;8.798;2022-10-26T05:21:45;100177.91;;;15.33;88.21
61384;BME280;63511;49.346;8.798;2022-10-26T05:24:11;100181.59;;;15.40;88.37
61384;BME280;63511;49.346;8.798;2022-10-26T05:26:36;100181.88;;;15.46;87.97
61384;BME280;63511;49.346;8.798;2022-10-26T05:29:01;100197.72;;;15.40;87.36
61384;BME280;63511;49.346;8.798;2022-10-26T05:31:27;100202.78;;;15.21;89.32
61384;BME280;63511;49.346;8.798;2022-10-26T05:33:52;100209.03;;;15.27;88.54
61384;BME280;63511;49.346;8.798;2022-10-26T05:36:19;100202.88;;;15.22;88.50
61384;BME280;63511;49.346;8.798;2022-10-26T05:38:45;100212.50;;;15.29;88.27
61384;BME280;63511;49.346;8.798;2022-10-26T05:41:11;100217.22;;;15.40;87.96
61384;BME280;63511;49.346;8.798;2022-10-26T05:43:36;100220.84;;;15.45;87.83
61384;BME280;63511;49.346;8.798;2022-10-26T05:46:04;100228.47;;;15.45;87.60
61384;BME280;63511;49.346;8.798;2022-10-26T05:48:32;100232.78;;;15.46;87.32
61384;BME280;63511;49.346;8.798;2022-10-26T05:50:58;100237.84;;;15.46;87.50
61384;BME280;63511;49.346;8.798;2022-10-26T05:53:24;100240.31;;;15.44;87.31
61384;BME280;63511;49.346;8.798;2022-10-26T05:55:53;100244.81;;;15.50;87.66
61384;BME280;63511;49.346;8.798;2022-10-26T05:58:19;100243.94;;;15.49;87.72
61384;BME280;63511;49.346;8.798;2022-10-26T06:03:59;100246.78;;;15.54;87.19
61384;BME280;63511;49.346;8.798;2022-10-26T06:06:37;100246.31;;;15.62;87.29
61384;BME280;63511;49.346;8.798;2022-10-26T06:09:04;100237.28;;;15.69;87.06
61384;BME280;63511;49.346;8.798;2022-10-26T06:11:29;100239.84;;;15.51;86.94
61384;BME280;63511;49.346;8.798;2022-10-26T06:13:57;100258.38;;;15.13;89.36
61384;BME280;63511;49.346;8.798;2022-10-26T06:16:49;100261.00;;;15.32;88.87
61384;BME280;63511;49.346;8.798;2022-10-26T06:25:16;100263.75;;;15.37;88.71
61384;BME280;63511;49.346;8.798;2022-10-26T06:30:25;100269.22;;;15.62;88.03
61384;BME280;63511;49.346;8.798;2022-10-26T06:32:51;100275.47;;;15.69;87.84
61384;BME280;63511;49.346;8.798;2022-10-26T06:37:53;100278.94;;;15.36;89.90
61384;BME280;63511;49.346;8.798;2022-10-26T06:40:20;100291.25;;;15.62;88.47
61384;BME280;63511;49.346;8.798;2022-10-26T06:42:46;100282.66;;;15.42;89.00
61384;BME280;63511;49.346;8.798;2022-10-26T06:45:13;100288.03;;;15.66;88.30
61384;BME280;63511;49.346;8.798;2022-10-26T06:47:46;100283.34;;;15.75;88.78
61384;BME280;63511;49.346;8.798;2022-10-26T06:50:36;100289.56;;;15.80;87.69
61384;BME280;63511;49.346;8.798;2022-10-26T06:53:20;100294.03;;;15.86;88.45
61384;BME280;63511;49.346;8.798;2022-10-26T06:55:50;100291.84;;;15.93;87.74
61384;BME280;63511;49.346;8.798;2022-10-26T06:58:22;100303.50;;;15.88;88.08
61384;BME280;63511;49.346;8.798;2022-10-26T07:00:51;100299.78;;;15.99;87.82
61384;BME280;63511;49.346;8.798;2022-10-26T07:03:17;100311.72;;;16.00;87.56
61384;BME280;63511;49.346;8.798;2022-10-26T07:05:45;100311.84;;;16.03;86.87
61384;BME280;63511;49.346;8.798;2022-10-26T07:08:13;100296.03;;;16.10;87.54
61384;BME280;63511;49.346;8.798;2022-10-26T07:10:38;100302.19;;;16.15;87.60
61384;BME280;63511;49.346;8.798;2022-10-26T07:13:08;100295.16;;;16.29;87.48
61384;BME280;63511;49.346;8.798;2022-10-26T07:15:37;100307.28;;;16.15;86.91
61384;BME280;63511;49.346;8.798;2022-10-26T07:18:07;100312.91;;;16.28;87.11
61384;BME280;63511;49.346;8.798;2022-10-26T07:20:37;100313.91;;;16.12;88.02
61384;BME280;63511;49.346;8.798;2022-10-26T07:23:08;100323.44;;;16.35;87.04
61384;BME280;63511;49.346;8.798;2022-10-26T07:25:38;100335.44;;;16.38;86.63
61384;BME280;63511;49.346;8.798;2022-10-26T07:28:05;100334.56;;;16.37;86.83
61384;BME280;63511;49.346;8.798;2022-10-26T07:30:35;100336.41;;;16.40;87.00
61384;BME280;63511;49.346;8.798;2022-10-26T07:33:02;100343.84;;;16.35;86.31
61384;BME280;63511;49.346;8.798;2022-10-26T07:35:28;100344.53;;;16.31;86.25
61384;BME280;63511;49.346;8.798;2022-10-26T07:37:57;100347.00;;;16.30;87.02
61384;BME280;63511;49.346;8.798;2022-10-26T07:40:25;100351.00;;;16.25;87.37
61384;BME280;63511;49.346;8.798;2022-10-26T07:42:56;100354.66;;;15.93;88.80
61384;BME280;63511;49.346;8.798;2022-10-26T07:45:21;100357.38;;;16.15;87.90
61384;BME280;63511;49.346;8.798;2022-10-26T07:47:50;100365.34;;;16.23;88.58
61384;BME280;63511;49.346;8.798;2022-10-26T07:50:15;100370.31;;;16.20;87.74
61384;BME280;63511;49.346;8.798;2022-10-26T07:52:44;100371.22;;;16.39;87.92
61384;BME280;63511;49.346;8.798;2022-10-26T07:55:10;100380.63;;;16.60;87.23
61384;BME280;63511;49.346;8.798;2022-10-26T07:57:36;100377.63;;;16.68;86.84
61384;BME280;63511;49.346;8.798;2022-10-26T08:00:04;100374.91;;;16.84;86.14
61384;BME280;63511;49.346;8.798;2022-10-26T08:02:32;100368.31;;;16.89;86.64
61384;BME280;63511;49.346;8.798;2022-10-26T08:05:01;100369.09;;;16.68;86.54
61384;BME280;63511;49.346;8.798;2022-10-26T08:07:27;100372.34;;;16.84;86.71
61384;BME280;63511;49.346;8.798;2022-10-26T08:09:52;100363.97;;;16.87;86.49
61384;BME280;63511;49.346;8.798;2022-10-26T08:12:20;100377.63;;;16.68;87.71
61384;BME280;63511;49.346;8.798;2022-10-26T08:14:45;100375.72;;;16.64;88.44
61384;BME280;63511;49.346;8.798;2022-10-26T08:17:13;100380.28;;;16.52;88.48
61384;BME280;63511;49.346;8.798;2022-10-26T08:19:38;100379.22;;;16.66;88.97
61384;BME280;63511;49.346;8.798;2022-10-26T08:22:06;100382.00;;;16.91;87.77
61384;BME280;63511;49.346;8.798;2022-10-26T08:24:31;100370.94;;;16.91;87.45
61384;BME280;63511;49.346;8.798;2022-10-26T08:26:59;100368.84;;;17.02;87.54
61384;BME280;63511;49.346;8.798;2022-10-26T08:29:24;100366.41;;;17.25;86.25
61384;BME280;63511;49.346;8.798;2022-10-26T08:31:50;100371.09;;;16.94;85.89
61384;BME280;63511;49.346;8.798;2022-10-26T08:34:15;100375.59;;;16.61;88.31
61384;BME280;63511;49.346;8.798;2022-10-26T08:36:40;100367.66;;;16.93;88.18
61384;BME280;63511;49.346;8.798;2022-10-26T08:39:06;100372.78;;;17.14;87.74
61384;BME280;63511;49.346;8.798;2022-10-26T08:41:40;100379.19;;;17.46;86.16
61384;BME280;63511;49.346;8.798;2022-10-26T08:47:15;100390.69;;;17.57;85.59
61384;BME280;63511;49.346;8.798;2022-10-26T08:52:13;100389.47;;;17.48;86.18
61384;BME280;63511;49.346;8.798;2022-10-26T08:54:51;100394.50;;;17.67;85.66
61384;BME280;63511;49.346;8.798;2022-10-26T08:57:24;100398.31;;;17.35;85.79
61384;BME280;63511;49.346;8.798;2022-10-26T09:00:02;100399.94;;;17.54;85.80
61384;BME280;63511;49.346;8.798;2022-10-26T09:02:28;100396.78;;;16.98;87.19
61384;BME280;63511;49.346;8.798;2022-10-26T09:04:54;100397.16;;;17.08;87.79
61384;BME280;63511;49.346;8.798;2022-10-26T09:07:31;100397.81;;;17.43;86.30
61384;BME280;63511;49.346;8.798;2022-10-26T09:13:03;100396.81;;;17.40;86.65
61384;BME280;63511;49.346;8.798;2022-10-26T09:21:23;100413.84;;;17.81;86.47
61384;BME280;63511;49.346;8.798;2022-10-26T09:26:53;100424.09;;;17.82;84.19
61384;BME280;63511;49.346;8.798;2022-10-26T09:29:25;100422.09;;;17.96;84.03
61384;BME280;63511;49.346;8.798;2022-10-26T09:31:53;100426.03;;;18.10;84.05
61384;BME280;63511;49.346;8.798;2022-10-26T09:34:28;100417.00;;;18.18;84.64
61384;BME280;63511;49.346;8.798;2022-10-26T09:36:57;100429.41;;;18.32;84.11
61384;BME280;63511;49.346;8.798;2022-10-26T09:39:29;100433.66;;;18.31;83.61
61384;BME280;63511;49.346;8.798;2022-10-26T09:42:03;100429.53;;;18.57;83.86
61384;BME280;63511;49.346;8.798;2022-10-26T09:44:38;100437.69;;;18.71;83.59
61384;BME280;63511;49.346;8.798;2022-10-26T09:47:35;100433.81;;;18.80;83.44
61384;BME280;63511;49.346;8.798;2022-10-26T09:50:14;100439.47;;;18.95;83.07
61384;BME280;63511;49.346;8.798;2022-10-26T09:52:43;100424.38;;;19.28;82.65
61384;BME280;63511;49.346;8.798;2022-10-26T09:55:14;100425.72;;;19.42;79.03
61384;BME280;63511;49.346;8.798;2022-10-26T09:57:45;100433.56;;;19.72;79.83
61384;BME280;63511;49.346;8.798;2022-10-26T10:00:17;100432.75;;;20.02;78.27
61384;BME280;63511;49.346;8.798;2022-10-26T10:02:43;100433.97;;;20.13;78.91
61384;BME280;63511;49.346;8.798;2022-10-26T10:05:30;100435.44;;;20.05;78.04
61384;BME280;63511;49.346;8.798;2022-10-26T10:11:07;100431.88;;;20.00;79.47
61384;BME280;63511;49.346;8.798;2022-10-26T10:13:35;100437.00;;;20.00;79.71
61384;BME280;63511;49.346;8.798;2022-10-26T10:18:36;100437.84;;;20.00;79.80
61384;BME280;63511;49.346;8.798;2022-10-26T10:21:06;100441.88;;;19.92;78.45
61384;BME280;63511;49.346;8.798;2022-10-26T10:23:34;100443.97;;;19.51;78.00
61384;BME280;63511;49.346;8.798;2022-10-26T10:26:08;100455.94;;;19.78;78.24
61384;BME280;63511;49.346;8.798;2022-10-26T10:28:39;100447.59;;;20.10;78.36
61384;BME280;63511;49.346;8.798;2022-10-26T10:31:17;100453.19;;;19.99;77.69
61384;BME280;63511;49.346;8.798;2022-10-26T10:33:45;100452.31;;;20.26;78.33
61384;BME280;63511;49.346;8.798;2022-10-26T10:36:15;100449.97;;;20.32;77.11
61384;BME280;63511;49.346;8.798;2022-10-26T10:38:46;100444.28;;;20.41;75.10
61384;BME280;63511;49.346;8.798;2022-10-26T10:41:18;100453.53;;;20.66;75.92
61384;BME280;63511;49.346;8.798;2022-10-26T10:43:52;100448.78;;;20.50;74.73
61384;BME280;63511;49.346;8.798;2022-10-26T10:46:23;100448.16;;;20.57;75.45
61384;BME280;63511;49.346;8.798;2022-10-26T10:49:04;100451.56;;;20.87;75.13
61384;BME280;63511;49.346;8.798;2022-10-26T10:51:44;100442.66;;;21.06;75.28
61384;BME280;63511;49.346;8.798;2022-10-26T10:54:31;100453.44;;;20.93;74.63
61384;BME280;63511;49.346;8.798;2022-10-26T11:07:14;100471.31;;;20.90;74.68
61384;BME280;63511;49.346;8.798;2022-10-26T11:09:44;100472.13;;;20.59;74.56
61384;BME280;63511;49.346;8.798;2022-10-26T11:12:36;100466.75;;;20.79;73.31
61384;BME280;63511;49.346;8.798;2022-10-26T11:15:10;100462.25;;;21.02;73.04
61384;BME280;63511;49.346;8.798;2022-10-26T11:18:15;100462.69;;;21.50;73.13
61384;BME280;63511;49.346;8.798;2022-10-26T11:20:50;100461.56;;;21.09;71.46
61384;BME280;63511;49.346;8.798;2022-10-26T11:26:27;100476.66;;;21.60;70.78
61384;BME280;63511;49.346;8.798;2022-10-26T11:29:11;100479.06;;;21.21;70.47
61384;BME280;63511;49.346;8.798;2022-10-26T11:31:47;100478.56;;;21.34;70.42
61384;BME280;63511;49.346;8.798;2022-10-26T11:37:04;100481.47;;;21.82;69.79
61384;BME280;63511;49.346;8.798;2022-10-26T11:39:41;100480.66;;;21.49;70.09
61384;BME280;63511;49.346;8.798;2022-10-26T11:42:36;100479.91;;;21.89;69.86
61384;BME280;63511;49.346;8.798;2022-10-26T11:45:20;100488.97;;;22.08;69.42
61384;BME280;63511;49.346;8.798;2022-10-26T11:47:50;100477.88;;;22.48;68.21
61384;BME280;63511;49.346;8.798;2022-10-26T11:50:21;100477.16;;;22.55;67.25
61384;BME280;63511;49.346;8.798;2022-10-26T11:52:51;100482.47;;;23.03;67.63
61384;BME280;63511;49.346;8.798;2022-10-26T11:55:21;100477.97;;;22.93;65.36
61384;BME280;63511;49.346;8.798;2022-10-26T11:57:48;100494.19;;;22.50;66.61
61384;BME280;63511;49.346;8.798;2022-10-26T12:00:16;100487.88;;;22.73;66.33
61384;BME280;63511;49.346;8.798;2022-10-26T12:02:47;100486.59;;;22.95;66.81
61384;BME280;63511;49.346;8.798;2022-10-26T12:07:43;100496.97;;;23.44;64.59
61384;BME280;63511;49.346;8.798;2022-10-26T12:10:22;100499.53;;;22.57;65.79
61384;BME280;63511;49.346;8.798;2022-10-26T12:15:45;100500.19;;;23.33;65.14
61384;BME280;63511;49.346;8.798;2022-10-26T12:20:54;100494.41;;;23.44;64.10
61384;BME280;63511;49.346;8.798;2022-10-26T12:23:22;100497.34;;;22.74;64.09
61384;BME280;63511;49.346;8.798;2022-10-26T12:25:50;100498.81;;;23.05;64.97
61384;BME280;63511;49.346;8.798;2022-10-26T12:33:50;100502.50;;;23.62;63.26
61384;BME280;63511;49.346;8.798;2022-10-26T12:39:34;100494.34;;;23.91;62.88
61384;BME280;63511;49.346;8.798;2022-10-26T12:44:37;100503.28;;;23.13;64.09
61384;BME280;63511;49.346;8.798;2022-10-26T12:52:56;100508.69;;;22.83;64.76
61384;BME280;63511;49.346;8.798;2022-10-26T13:09:16;100506.78;;;22.73;64.90
61384;BME280;63511;49.346;8.798;2022-10-26T13:11:54;100514.63;;;23.23;63.70
61384;BME280;63511;49.346;8.798;2022-10-26T13:14:34;100509.25;;;23.11;63.65
61384;BME280;63511;49.346;8.798;2022-10-26T13:17:06;100512.66;;;23.11;64.95
61384;BME280;63511;49.346;8.798;2022-10-26T13:19:47;100519.94;;;22.50;65.28
61384;BME280;63511;49.346;8.798;2022-10-26T13:22:20;100515.16;;;22.66;65.31
61384;BME280;63511;49.346;8.798;2022-10-26T13:24:57;100516.34;;;22.79;65.40
61384;BME280;63511;49.346;8.798;2022-10-26T13:32:34;100516.44;;;23.28;65.14
61384;BME280;63511;49.346;8.798;2022-10-26T13:35:03;100515.97;;;23.48;63.92
61384;BME280;63511;49.346;8.798;2022-10-26T13:37:31;100518.59;;;23.49;64.37
61384;BME280;63511;49.346;8.798;2022-10-26T13:39:58;100523.38;;;23.33;64.60
61384;BME280;63511;49.346;8.798;2022-10-26T13:42:44;100522.31;;;23.20;64.34
61384;BME280;63511;49.346;8.798;2022-10-26T13:45:14;100521.41;;;23.18;64.81
61384;BME280;63511;49.346;8.798;2022-10-26T13:47:51;100525.53;;;23.10;65.10
61384;BME280;63511;49.346;8.798;2022-10-26T13:50:23;100527.81;;;22.95;64.37
61384;BME280;63511;49.346;8.798;2022-10-26T13:52:54;100519.78;;;22.79;64.10
61384;BME280;63511;49.346;8.798;2022-10-26T13:55:26;100523.69;;;23.03;64.07
61384;BME280;63511;49.346;8.798;2022-10-26T13:58:19;100520.59;;;23.22;64.30
61384;BME280;63511;49.346;8.798;2022-10-26T14:01:20;100528.69;;;22.97;63.75
61384;BME280;63511;49.346;8.798;2022-10-26T14:03:47;100525.03;;;22.85;64.30
61384;BME280;63511;49.346;8.798;2022-10-26T14:06:21;100530.56;;;22.65;64.72
61384;BME280;63511;49.346;8.798;2022-10-26T14:08:50;100529.50;;;22.93;63.91
61384;BME280;63511;49.346;8.798;2022-10-26T14:11:25;100537.47;;;22.66;65.47
61384;BME280;63511;49.346;8.798;2022-10-26T14:13:54;100538.91;;;22.92;65.63
61384;BME280;63511;49.346;8.798;2022-10-26T14:16:21;100536.28;;;22.89;64.80
61384;BME280;63511;49.346;8.798;2022-10-26T14:18:49;100546.31;;;22.77;64.57
61384;BME280;63511;49.346;8.798;2022-10-26T14:21:19;100542.97;;;22.79;64.44
61384;BME280;63511;49.346;8.798;2022-10-26T14:23:49;100544.28;;;23.03;64.51
61384;BME280;63511;49.346;8.798;2022-10-26T14:26:22;100548.53;;;23.01;64.83
61384;BME280;63511;49.346;8.798;2022-10-26T14:28:57;100557.00;;;22.94;64.84
61384;BME280;63511;49.346;8.798;2022-10-26T14:31:26;100562.69;;;22.79;64.90
61384;BME280;63511;49.346;8.798;2022-10-26T14:33:53;100557.22;;;23.04;64.09
61384;BME280;63511;49.346;8.798;2022-10-26T14:36:32;100559.88;;;23.09;64.68
61384;BME280;63511;49.346;8.798;2022-10-26T14:39:05;100551.84;;;22.94;65.37
61384;BME280;63511;49.346;8.798;2022-10-26T14:41:36;100563.63;;;22.82;65.21
61384;BME280;63511;49.346;8.798;2022-10-26T14:44:02;100560.03;;;22.74;64.74
61384;BME280;63511;49.346;8.798;2022-10-26T14:46:31;100568.59;;;22.73;64.68
61384;BME280;63511;49.346;8.798;2022-10-26T14:49:01;100563.72;;;22.87;64.55
61384;BME280;63511;49.346;8.798;2022-10-26T14:51:29;100564.59;;;22.87;65.65
61384;BME280;63511;49.346;8.798;2022-10-26T14:53:58;100569.50;;;22.77;65.85
61384;BME280;63511;49.346;8.798;2022-10-26T14:56:30;100575.56;;;22.80;65.82
61384;BME280;63511;49.346;8.798;2022-10-26T14:59:27;100573.31;;;22.57;66.07
61384;BME280;63511;49.346;8.798;2022-10-26T15:04:39;100574.03;;;22.51;66.73
61384;BME280;63511;49.346;8.798;2022-10-26T15:07:14;100570.44;;;22.43;67.06
61384;BME280;63511;49.346;8.798;2022-10-26T15:09:48;100575.41;;;22.35;67.63
61384;BME280;63511;49.346;8.798;2022-10-26T15:12:34;100578.69;;;22.30;67.24
61384;BME280;63511;49.346;8.798;2022-10-26T15:15:19;100575.94;;;22.22;67.46
61384;BME280;63511;49.346;8.798;2022-10-26T15:17:52;100588.56;;;22.12;68.38
61384;BME280;63511;49.346;8.798;2022-10-26T15:20:25;100592.84;;;22.13;67.73